createdAt,value
2022-10-31T00:01:41.252Z,100834.06
2022-10-31T00:04:08.930Z,100847.16
2022-10-31T00:06:37.023Z,100842.31
2022-10-31T00:09:06.946Z,100841.50
2022-10-31T00:11:35.216Z,100851.41
2022-10-31T00:14:03.256Z,100849.44
2022-10-31T00:16:31.820Z,100838.50
2022-10-31T00:19:01.257Z,100830.31
2022-10-31T00:21:30.027Z,100835.19
2022-10-31T00:23:59.345Z,100838.38
2022-10-31T00:26:28.863Z,100836.44
2022-10-31T00:28:56.609Z,100834.72
2022-10-31T00:31:24.709Z,100836.78
2022-10-31T00:33:52.614Z,100835.22
2022-10-31T00:36:21.886Z,100828.31
2022-10-31T00:38:50.319Z,100836.13
2022-10-31T00:41:20.189Z,100831.22
2022-10-31T00:43:49.280Z,100830.84
2022-10-31T00:46:17.177Z,100828.75
2022-10-31T00:48:45.033Z,100827.81
2022-10-31T00:51:13.033Z,100831.31
2022-10-31T00:53:42.651Z,100831.19
2022-10-31T00:56:10.361Z,100834.84
2022-10-31T00:58:38.114Z,100842.59
2022-10-31T01:01:07.538Z,100847.22
2022-10-31T01:03:39.453Z,100849.41
2022-10-31T01:06:13.482Z,100851.91
2022-10-31T01:08:41.920Z,100847.78
2022-10-31T01:11:14.710Z,100848.25
2022-10-31T01:13:42.938Z,100839.41
2022-10-31T01:16:13.553Z,100842.06
2022-10-31T01:18:41.303Z,100839.34
2022-10-31T01:21:12.000Z,100846.31
2022-10-31T01:23:39.848Z,100847.63
2022-10-31T01:26:10.737Z,100845.56
2022-10-31T01:28:46.296Z,100848.88
2022-10-31T01:31:16.035Z,100847.28
2022-10-31T01:33:44.087Z,100842.06
2022-10-31T01:36:18.784Z,100842.94
2022-10-31T01:38:46.917Z,100843.59
2022-10-31T01:41:16.596Z,100843.94
2022-10-31T01:43:50.512Z,100840.38
2022-10-31T01:46:23.988Z,100845.28
2022-10-31T01:48:53.048Z,100841.78
2022-10-31T01:51:23.293Z,100846.56
2022-10-31T01:53:54.231Z,100841.63
2022-10-31T01:56:23.022Z,100844.81
2022-10-31T01:58:53.440Z,100847.53
2022-10-31T02:01:22.944Z,100842.50
2022-10-31T02:03:51.292Z,100841.50
2022-10-31T02:06:29.690Z,100834.13
2022-10-31T02:09:01.308Z,100830.41
2022-10-31T02:11:30.430Z,100835.53
2022-10-31T02:14:00.104Z,100826.88
2022-10-31T02:16:29.197Z,100832.75
2022-10-31T02:18:58.087Z,100836.09
2022-10-31T02:21:32.476Z,100825.84
2022-10-31T02:24:23.797Z,100823.31
2022-10-31T02:27:00.542Z,100824.88
2022-10-31T02:29:56.368Z,100814.47
2022-10-31T02:32:30.026Z,100822.19
2022-10-31T02:35:02.608Z,100823.06
2022-10-31T02:37:40.326Z,100821.25
2022-10-31T02:40:17.891Z,100822.09
2022-10-31T02:43:19.760Z,100821.25
2022-10-31T02:45:57.533Z,100824.75
2022-10-31T02:48:31.202Z,100823.06
2022-10-31T02:51:02.172Z,100824.72
2022-10-31T02:53:34.285Z,100819.56
2022-10-31T02:56:06.233Z,100818.66
2022-10-31T02:58:38.641Z,100822.97
2022-10-31T03:01:20.247Z,100828.25
2022-10-31T03:04:11.212Z,100822.47
2022-10-31T03:06:45.492Z,100819.97
2022-10-31T03:09:21.621Z,100818.19
2022-10-31T03:11:58.660Z,100812.38
2022-10-31T03:14:33.193Z,100809.06
2022-10-31T03:17:05.119Z,100815.03
2022-10-31T03:19:40.941Z,100808.81
2022-10-31T03:22:17.475Z,100808.56
2022-10-31T03:24:47.310Z,100802.38
2022-10-31T03:27:20.224Z,100801.34
2022-10-31T03:29:51.165Z,100791.69
2022-10-31T03:32:23.641Z,100793.38
2022-10-31T03:34:57.800Z,100782.91
2022-10-31T03:37:29.692Z,100781.97
2022-10-31T03:40:00.664Z,100786.25
2022-10-31T03:42:32.241Z,100785.34
2022-10-31T03:45:04.391Z,100788.72
2022-10-31T03:47:32.973Z,100782.41
2022-10-31T03:50:03.318Z,100784.19
2022-10-31T03:52:37.933Z,100780.66
2022-10-31T03:55:11.604Z,100773.66
2022-10-31T03:57:43.256Z,100782.28
2022-10-31T04:00:15.162Z,100785.63
2022-10-31T04:02:51.409Z,100786.34
2022-10-31T04:05:22.775Z,100776.94
2022-10-31T04:07:55.255Z,100779.41
2022-10-31T04:10:31.776Z,100774.28
2022-10-31T04:13:07.141Z,100781.38
2022-10-31T04:15:48.111Z,100781.47
2022-10-31T04:18:18.195Z,100786.59
2022-10-31T04:20:49.575Z,100780.78
2022-10-31T04:23:22.300Z,100780.13
2022-10-31T04:25:50.757Z,100784.53
2022-10-31T04:30:52.741Z,100791.59
2022-10-31T04:33:20.720Z,100787.28
2022-10-31T04:35:50.174Z,100792.03
2022-10-31T04:38:19.677Z,100784.16
2022-10-31T04:40:47.429Z,100783.97
2022-10-31T04:43:35.419Z,100780.47
2022-10-31T04:46:03.616Z,100781.41
2022-10-31T04:48:31.665Z,100787.56
2022-10-31T04:51:05.367Z,100788.41
2022-10-31T04:53:33.828Z,100785.34
2022-10-31T04:56:21.485Z,100788.09
2022-10-31T04:58:54.226Z,100790.13
2022-10-31T05:01:23.785Z,100788.38
2022-10-31T05:03:51.673Z,100785.78
2022-10-31T05:06:20.842Z,100775.41
2022-10-31T05:08:48.549Z,100780.56
2022-10-31T05:11:16.717Z,100774.38
2022-10-31T05:13:45.724Z,100782.50
2022-10-31T05:16:33.386Z,100786.59
2022-10-31T05:19:19.708Z,100780.75
2022-10-31T05:22:11.903Z,100773.19
2022-10-31T05:24:39.577Z,100773.44
2022-10-31T05:27:07.335Z,100776.91
2022-10-31T05:29:35.813Z,100772.25
2022-10-31T05:32:05.140Z,100772.84
2022-10-31T05:34:55.442Z,100761.41
2022-10-31T05:37:54.217Z,100773.53
2022-10-31T05:40:23.541Z,100770.38
2022-10-31T05:42:53.753Z,100778.06
2022-10-31T05:45:23.988Z,100766.69
2022-10-31T05:47:59.167Z,100772.94
2022-10-31T05:50:51.287Z,100775.03
2022-10-31T05:53:21.246Z,100774.41
2022-10-31T05:55:49.228Z,100776.09
2022-10-31T05:58:21.041Z,100774.63
2022-10-31T06:00:56.050Z,100773.03
2022-10-31T06:03:24.552Z,100780.34
2022-10-31T06:05:59.079Z,100773.56
2022-10-31T06:08:33.287Z,100779.78
2022-10-31T06:11:06.219Z,100775.69
2022-10-31T06:13:54.139Z,100788.81
2022-10-31T06:16:31.067Z,100792.31
2022-10-31T06:19:08.833Z,100795.06
2022-10-31T06:21:36.597Z,100792.38
2022-10-31T06:24:06.775Z,100783.66
2022-10-31T06:26:57.247Z,100798.22
2022-10-31T06:29:25.213Z,100797.19
2022-10-31T06:32:16.224Z,100786.78
2022-10-31T06:34:48.953Z,100790.97
2022-10-31T06:37:17.537Z,100795.03
2022-10-31T06:39:49.600Z,100792.72
2022-10-31T06:42:18.555Z,100795.16
2022-10-31T06:44:46.416Z,100790.78
2022-10-31T06:47:32.403Z,100786.00
2022-10-31T06:50:10.578Z,100795.25
2022-10-31T06:52:38.768Z,100789.00
2022-10-31T06:55:08.519Z,100791.41
2022-10-31T06:57:37.076Z,100791.41
2022-10-31T07:00:05.353Z,100789.56
2022-10-31T07:02:44.101Z,100793.81
2022-10-31T07:05:13.116Z,100784.00
2022-10-31T07:07:58.104Z,100793.28
2022-10-31T07:10:34.304Z,100794.78
2022-10-31T07:13:07.176Z,100790.41
2022-10-31T07:15:39.804Z,100787.50
2022-10-31T07:18:08.775Z,100789.25
2022-10-31T07:20:37.424Z,100788.94
2022-10-31T07:23:06.016Z,100787.59
2022-10-31T07:25:35.627Z,100783.00
2022-10-31T07:28:08.931Z,100778.66
2022-10-31T07:30:37.219Z,100779.31
2022-10-31T07:33:06.293Z,100775.75
2022-10-31T07:35:54.021Z,100780.78
2022-10-31T07:38:25.116Z,100776.41
2022-10-31T07:40:54.800Z,100775.13
2022-10-31T07:43:23.817Z,100771.50
2022-10-31T07:46:10.119Z,100767.91
2022-10-31T07:49:16.018Z,100773.78
2022-10-31T07:52:02.381Z,100771.09
2022-10-31T07:54:56.157Z,100775.22
2022-10-31T07:57:30.609Z,100776.91
2022-10-31T08:00:01.778Z,100768.81
2022-10-31T08:02:31.020Z,100769.41
2022-10-31T08:05:31.284Z,100776.25
2022-10-31T08:08:19.372Z,100785.38
2022-10-31T08:10:49.106Z,100788.97
2022-10-31T08:13:18.129Z,100789.88
2022-10-31T08:15:51.708Z,100789.44
2022-10-31T08:18:24.592Z,100782.50
2022-10-31T08:20:53.286Z,100783.03
2022-10-31T08:23:20.969Z,100777.97
2022-10-31T08:25:49.138Z,100789.81
2022-10-31T08:28:18.308Z,100781.94
2022-10-31T08:30:48.938Z,100782.50
2022-10-31T08:33:39.405Z,100775.59
2022-10-31T08:36:25.737Z,100782.47
2022-10-31T08:38:59.143Z,100778.53
2022-10-31T08:41:30.099Z,100769.69
2022-10-31T08:44:00.389Z,100774.31
2022-10-31T08:46:28.074Z,100777.38
2022-10-31T08:48:56.024Z,100774.22
2022-10-31T08:51:24.822Z,100766.97
2022-10-31T08:53:56.272Z,100779.25
2022-10-31T08:56:42.472Z,100773.44
2022-10-31T08:59:29.901Z,100776.50
2022-10-31T09:02:33.151Z,100767.38
2022-10-31T09:05:02.347Z,100766.97
2022-10-31T09:07:30.973Z,100771.03
2022-10-31T09:09:59.708Z,100767.16
2022-10-31T09:12:29.155Z,100767.56
2022-10-31T09:15:24.238Z,100762.88
2022-10-31T09:18:14.956Z,100766.28
2022-10-31T09:20:52.443Z,100762.50
2022-10-31T09:23:22.079Z,100757.72
2022-10-31T09:25:51.585Z,100757.91
2022-10-31T09:28:34.513Z,100762.53
2022-10-31T09:31:10.061Z,100760.53
2022-10-31T09:33:55.792Z,100756.50
2022-10-31T09:36:32.417Z,100749.28
2022-10-31T09:39:00.112Z,100759.75
2022-10-31T09:41:39.308Z,100754.66
2022-10-31T09:44:21.290Z,100750.09
2022-10-31T09:46:58.879Z,100746.56
2022-10-31T09:49:55.796Z,100751.59
2022-10-31T09:52:28.714Z,100741.97
2022-10-31T09:55:02.858Z,100739.31
2022-10-31T09:57:34.802Z,100742.50
2022-10-31T10:00:05.770Z,100737.63
2022-10-31T10:02:48.569Z,100736.47
2022-10-31T10:05:21.975Z,100728.69
2022-10-31T10:08:05.487Z,100729.44
2022-10-31T10:10:55.895Z,100730.66
2022-10-31T10:14:01.075Z,100730.09
2022-10-31T10:16:43.059Z,100734.31
2022-10-31T10:19:27.747Z,100732.16
2022-10-31T10:22:04.294Z,100734.34
2022-10-31T10:24:46.945Z,100724.19
2022-10-31T10:27:25.903Z,100721.41
2022-10-31T10:30:03.690Z,100726.47
2022-10-31T10:32:42.424Z,100727.09
2022-10-31T10:35:21.191Z,100731.91
2022-10-31T10:37:52.784Z,100728.31
2022-10-31T10:40:23.646Z,100720.81
2022-10-31T10:43:19.172Z,100716.59
2022-10-31T10:46:25.820Z,100712.00
2022-10-31T10:49:00.294Z,100699.50
2022-10-31T10:54:45.160Z,100694.41
2022-10-31T10:57:45.293Z,100687.13
2022-10-31T11:00:22.689Z,100685.09
2022-10-31T11:02:51.846Z,100674.63
2022-10-31T11:05:28.111Z,100677.34
2022-10-31T11:07:57.520Z,100675.72
2022-10-31T11:10:27.784Z,100677.25
2022-10-31T11:13:04.905Z,100670.59
2022-10-31T11:15:37.624Z,100674.34
2022-10-31T11:18:06.177Z,100668.25
2022-10-31T11:20:37.122Z,100659.94
2022-10-31T11:23:18.396Z,100658.38
2022-10-31T11:25:56.451Z,100662.66
2022-10-31T11:28:25.361Z,100649.75
2022-10-31T11:30:55.380Z,100654.72
2022-10-31T11:33:29.873Z,100650.88
2022-10-31T11:36:00.830Z,100649.56
2022-10-31T11:38:35.762Z,100646.09
2022-10-31T11:41:13.672Z,100643.94
2022-10-31T11:43:51.547Z,100645.72
2022-10-31T11:46:24.533Z,100646.47
2022-10-31T11:48:56.021Z,100640.28
2022-10-31T11:51:25.561Z,100634.47
2022-10-31T11:54:00.086Z,100637.16
2022-10-31T11:56:40.388Z,100616.66
2022-10-31T11:59:19.072Z,100616.34
2022-10-31T12:01:50.361Z,100604.53
2022-10-31T12:04:19.036Z,100597.69
2022-10-31T12:06:48.268Z,100596.84
2022-10-31T12:09:23.028Z,100602.38
2022-10-31T12:12:06.060Z,100592.91
2022-10-31T12:14:44.568Z,100590.09
2022-10-31T12:17:17.828Z,100585.06
2022-10-31T12:19:55.338Z,100587.59
2022-10-31T12:22:39.576Z,100585.34
2022-10-31T12:25:35.868Z,100576.16
2022-10-31T12:28:23.965Z,100572.28
2022-10-31T12:31:05.220Z,100558.50
2022-10-31T12:33:49.123Z,100558.78
2022-10-31T12:36:31.455Z,100559.44
2022-10-31T12:39:52.093Z,100561.97
2022-10-31T12:42:48.718Z,100563.97
2022-10-31T12:45:42.180Z,100557.22
2022-10-31T12:48:24.288Z,100555.53
2022-10-31T12:51:01.766Z,100561.81
2022-10-31T12:53:53.799Z,100560.69
2022-10-31T12:56:53.134Z,100550.84
2022-10-31T12:59:32.595Z,100551.56
2022-10-31T13:02:08.893Z,100540.41
2022-10-31T13:04:45.194Z,100530.47
2022-10-31T13:07:16.367Z,100513.81
2022-10-31T13:09:48.400Z,100499.09
2022-10-31T13:12:19.969Z,100495.84
2022-10-31T13:14:54.211Z,100493.41
2022-10-31T13:17:31.283Z,100487.66
2022-10-31T13:20:15.489Z,100488.16
2022-10-31T13:22:46.137Z,100483.94
2022-10-31T13:25:19.476Z,100476.81
2022-10-31T13:27:53.083Z,100471.72
2022-10-31T13:30:24.184Z,100453.69
2022-10-31T13:32:55.914Z,100452.00
2022-10-31T13:35:31.477Z,100446.53
2022-10-31T13:38:08.981Z,100450.75
2022-10-31T13:40:58.320Z,100456.31
2022-10-31T13:43:35.509Z,100457.97
2022-10-31T13:46:04.639Z,100473.13
2022-10-31T13:48:42.294Z,100494.41
2022-10-31T13:51:12.599Z,100513.59
2022-10-31T13:53:44.736Z,100511.09
2022-10-31T13:56:20.033Z,100506.78
2022-10-31T13:59:05.259Z,100492.44
2022-10-31T14:01:35.733Z,100483.56
2022-10-31T14:04:13.802Z,100475.25
2022-10-31T14:06:51.655Z,100471.28
2022-10-31T14:09:24.027Z,100468.75
2022-10-31T14:11:52.898Z,100465.50
2022-10-31T14:14:22.708Z,100468.00
2022-10-31T14:16:57.358Z,100459.81
2022-10-31T14:19:25.575Z,100474.41
2022-10-31T14:21:53.379Z,100476.34
2022-10-31T14:24:37.944Z,100472.00
2022-10-31T14:27:22.786Z,100467.47
2022-10-31T14:29:50.826Z,100464.25
2022-10-31T14:32:24.677Z,100457.88
2022-10-31T14:34:58.098Z,100450.31
2022-10-31T14:37:40.805Z,100450.44
2022-10-31T14:40:26.967Z,100450.31
2022-10-31T14:43:18.060Z,100431.00
2022-10-31T14:45:54.375Z,100432.44
2022-10-31T14:48:43.794Z,100436.94
2022-10-31T14:51:15.303Z,100438.53
2022-10-31T14:53:48.792Z,100439.28
2022-10-31T14:56:23.212Z,100440.22
2022-10-31T14:58:51.636Z,100441.53
2022-10-31T15:01:25.445Z,100442.56
2022-10-31T15:04:21.936Z,100438.06
2022-10-31T15:06:48.179Z,100424.69
2022-10-31T15:09:26.554Z,100412.69
2022-10-31T15:11:54.395Z,100411.84
2022-10-31T15:14:27.350Z,100402.41
2022-10-31T15:16:55.530Z,100402.41
2022-10-31T15:19:27.398Z,100407.44
2022-10-31T15:21:58.078Z,100396.31
2022-10-31T15:24:30.356Z,100393.81
2022-10-31T15:27:03.845Z,100393.88
2022-10-31T15:29:33.609Z,100402.78
2022-10-31T15:32:03.649Z,100392.84
2022-10-31T15:34:40.014Z,100370.72
2022-10-31T15:37:12.881Z,100369.34
2022-10-31T15:39:40.812Z,100367.03
2022-10-31T15:42:20.352Z,100365.25
2022-10-31T15:44:51.835Z,100352.50
2022-10-31T15:47:21.802Z,100322.09
2022-10-31T15:49:53.709Z,100265.25
2022-10-31T15:52:31.133Z,100233.34
2022-10-31T15:55:02.061Z,100223.25
2022-10-31T15:57:31.212Z,100262.69
2022-10-31T15:59:59.603Z,100297.34
2022-10-31T16:02:29.041Z,100299.31
2022-10-31T16:05:00.158Z,100275.44
2022-10-31T16:07:28.558Z,100270.41
2022-10-31T16:09:59.425Z,100274.88
2022-10-31T16:12:33.895Z,100289.13
2022-10-31T16:15:01.653Z,100286.25
2022-10-31T16:17:30.093Z,100301.31
2022-10-31T16:20:01.785Z,100291.19
2022-10-31T16:22:32.072Z,100305.81
2022-10-31T16:25:06.825Z,100322.94
2022-10-31T16:27:37.188Z,100322.00
2022-10-31T16:30:26.506Z,100302.81
2022-10-31T16:32:59.000Z,100300.66
2022-10-31T16:35:29.245Z,100303.84
2022-10-31T16:37:57.185Z,100307.38
2022-10-31T16:40:24.929Z,100302.81
2022-10-31T16:42:53.385Z,100310.84
2022-10-31T16:45:23.188Z,100318.50
2022-10-31T16:47:51.812Z,100313.13
2022-10-31T16:50:23.914Z,100316.47
2022-10-31T16:55:47.248Z,100303.75
2022-10-31T16:58:19.435Z,100303.75
2022-10-31T17:00:47.599Z,100324.31
2022-10-31T17:03:15.389Z,100330.28
2022-10-31T17:05:44.589Z,100314.72
2022-10-31T17:08:12.657Z,100296.41
2022-10-31T17:10:41.544Z,100267.16
2022-10-31T17:13:15.393Z,100241.59
2022-10-31T17:15:46.031Z,100255.03
2022-10-31T17:18:14.329Z,100297.34
2022-10-31T17:20:44.227Z,100312.47
2022-10-31T17:23:13.266Z,100291.75
2022-10-31T17:25:41.789Z,100273.34
2022-10-31T17:28:13.498Z,100285.38
2022-10-31T17:30:42.364Z,100291.72
2022-10-31T17:33:12.854Z,100279.56
2022-10-31T17:35:40.621Z,100273.59
2022-10-31T17:38:09.891Z,100277.31
2022-10-31T17:40:38.855Z,100281.31
2022-10-31T17:43:06.846Z,100277.59
2022-10-31T17:45:34.504Z,100281.06
2022-10-31T17:48:02.351Z,100273.13
2022-10-31T17:50:29.954Z,100265.38
2022-10-31T17:52:59.794Z,100278.91
2022-10-31T17:55:32.890Z,100292.34
2022-10-31T17:58:04.954Z,100285.84
2022-10-31T18:00:34.588Z,100291.41
2022-10-31T18:03:03.170Z,100277.25
2022-10-31T18:05:31.053Z,100276.81
2022-10-31T18:08:03.676Z,100279.41
2022-10-31T18:10:33.400Z,100281.22
2022-10-31T18:13:01.336Z,100274.09
2022-10-31T18:15:29.396Z,100278.59
2022-10-31T18:17:56.969Z,100277.91
2022-10-31T18:20:24.833Z,100290.44
2022-10-31T18:22:52.412Z,100292.94
2022-10-31T18:25:20.050Z,100289.31
2022-10-31T18:27:49.209Z,100301.88
2022-10-31T18:30:18.021Z,100299.84
2022-10-31T18:32:45.691Z,100296.00
2022-10-31T18:35:13.333Z,100307.66
2022-10-31T18:37:40.977Z,100291.84
2022-10-31T18:40:09.668Z,100287.16
2022-10-31T18:42:38.555Z,100292.41
2022-10-31T18:45:17.469Z,100296.97
2022-10-31T18:47:52.437Z,100298.81
2022-10-31T18:50:20.420Z,100289.53
2022-10-31T18:52:48.056Z,100308.25
2022-10-31T18:55:16.086Z,100312.81
2022-10-31T18:57:44.017Z,100296.41
2022-10-31T19:00:14.829Z,100291.44
2022-10-31T19:02:42.448Z,100304.97
2022-10-31T19:05:10.364Z,100305.91
2022-10-31T19:07:38.016Z,100292.81
2022-10-31T19:10:06.623Z,100308.69
2022-10-31T19:12:34.480Z,100303.09
2022-10-31T19:15:02.303Z,100290.97
2022-10-31T19:17:31.996Z,100303.22
2022-10-31T19:19:59.843Z,100300.41
2022-10-31T19:22:27.901Z,100287.13
2022-10-31T19:24:55.527Z,100289.34
2022-10-31T19:27:23.197Z,100299.19
2022-10-31T19:29:51.057Z,100300.63
2022-10-31T19:32:18.736Z,100298.78
2022-10-31T19:34:47.757Z,100292.78
2022-10-31T19:37:15.656Z,100291.38
2022-10-31T19:39:44.434Z,100303.78
2022-10-31T19:42:12.933Z,100297.97
2022-10-31T19:44:40.562Z,100303.94
2022-10-31T19:47:08.568Z,100302.81
2022-10-31T19:49:36.645Z,100298.28
2022-10-31T19:52:06.333Z,100307.13
2022-10-31T19:54:34.236Z,100300.63
2022-10-31T19:57:01.860Z,100311.50
2022-10-31T19:59:29.536Z,100303.91
2022-10-31T20:01:57.208Z,100293.41
2022-10-31T20:04:34.828Z,100297.72
2022-10-31T20:07:02.717Z,100306.97
2022-10-31T20:09:31.929Z,100300.91
2022-10-31T20:11:59.659Z,100296.75
2022-10-31T20:14:27.985Z,100307.88
2022-10-31T20:16:55.839Z,100307.09
2022-10-31T20:19:24.102Z,100303.25
2022-10-31T20:21:51.750Z,100298.31
2022-10-31T20:24:20.006Z,100288.97
2022-10-31T20:26:49.218Z,100286.19
2022-10-31T20:29:17.263Z,100286.56
2022-10-31T20:31:46.390Z,100289.03
2022-10-31T20:34:14.668Z,100299.63
2022-10-31T20:36:42.477Z,100301.66
2022-10-31T20:39:10.963Z,100297.47
2022-10-31T20:41:39.422Z,100297.69
2022-10-31T20:44:08.767Z,100293.72
2022-10-31T20:46:36.581Z,100289.25
2022-10-31T20:49:04.668Z,100291.25
2022-10-31T20:51:32.517Z,100288.88
2022-10-31T20:54:01.297Z,100281.06
2022-10-31T20:56:29.911Z,100277.34
2022-10-31T20:58:58.876Z,100278.53
2022-10-31T21:01:30.209Z,100280.47
2022-10-31T21:03:58.877Z,100283.31
2022-10-31T21:06:27.098Z,100279.06
2022-10-31T21:08:55.510Z,100264.25
2022-10-31T21:11:25.223Z,100272.94
2022-10-31T21:13:53.580Z,100257.28
2022-10-31T21:16:23.726Z,100258.13
2022-10-31T21:18:53.984Z,100256.13
2022-10-31T21:21:29.116Z,100261.19
2022-10-31T21:24:02.206Z,100256.47
2022-10-31T21:26:33.305Z,100252.03
2022-10-31T21:29:01.210Z,100255.66
2022-10-31T21:31:29.257Z,100251.59
2022-10-31T21:33:58.694Z,100253.97
2022-10-31T21:36:27.038Z,100242.50
2022-10-31T21:38:56.210Z,100254.72
2022-10-31T21:41:26.241Z,100248.50
2022-10-31T21:43:55.235Z,100241.53
2022-10-31T21:46:25.239Z,100251.13
2022-10-31T21:48:53.475Z,100243.84
2022-10-31T21:51:23.926Z,100245.72
2022-10-31T21:54:09.853Z,100235.13
2022-10-31T21:56:37.975Z,100240.50
2022-10-31T21:59:06.391Z,100241.53
2022-10-31T22:01:34.933Z,100236.97
2022-10-31T22:04:03.055Z,100239.41
2022-10-31T22:06:32.473Z,100239.19
2022-10-31T22:09:01.721Z,100236.81
2022-10-31T22:11:29.733Z,100235.88
2022-10-31T22:14:00.107Z,100244.13
2022-10-31T22:16:29.321Z,100245.34
2022-10-31T22:18:58.345Z,100239.47
2022-10-31T22:21:27.870Z,100227.00
2022-10-31T22:24:01.890Z,100220.47
2022-10-31T22:26:33.066Z,100225.59
2022-10-31T22:29:02.785Z,100223.63
2022-10-31T22:31:31.928Z,100219.59
2022-10-31T22:34:00.018Z,100238.28
2022-10-31T22:36:29.007Z,100232.38
2022-10-31T22:38:58.145Z,100232.22
2022-10-31T22:41:27.774Z,100220.75
2022-10-31T22:43:56.283Z,100222.38
2022-10-31T22:46:25.872Z,100211.66
2022-10-31T22:48:55.902Z,100213.59
2022-10-31T22:51:26.183Z,100215.38
2022-10-31T22:53:56.472Z,100227.31
2022-10-31T22:56:28.297Z,100217.44
2022-10-31T22:58:56.384Z,100215.81
2022-10-31T23:01:27.298Z,100224.56
2022-10-31T23:03:55.383Z,100217.44
2022-10-31T23:06:25.306Z,100204.38
2022-10-31T23:08:54.156Z,100203.34
2022-10-31T23:11:23.890Z,100212.88
2022-10-31T23:14:12.148Z,100210.34
2022-10-31T23:16:44.272Z,100215.50
2022-10-31T23:19:14.132Z,100219.94
2022-10-31T23:21:59.769Z,100209.50
2022-10-31T23:24:30.943Z,100212.09
2022-10-31T23:27:11.137Z,100202.94
2022-10-31T23:29:47.859Z,100226.00
2022-10-31T23:32:19.479Z,100221.44
2022-10-31T23:34:48.501Z,100230.31
2022-10-31T23:37:17.540Z,100218.78
2022-10-31T23:39:45.390Z,100212.41
2022-10-31T23:42:13.688Z,100211.97
2022-10-31T23:44:41.540Z,100213.38
2022-10-31T23:47:11.010Z,100212.41
2022-10-31T23:49:38.974Z,100216.84
2022-10-31T23:52:07.513Z,100212.16
2022-10-31T23:54:35.711Z,100217.97
2022-10-31T23:57:04.312Z,100211.00
2022-10-31T23:59:32.036Z,100219.84
